Time;durP1;ratioP1;P1;durP2;ratioP2;P2;SDS_P1;SDS_P2;PMS_P1;PMS_P2;Temp;Humidity;BMP_temperature;BMP_pressure;BME280_temperature;BME280_humidity;BME280_pressure;Samples;Min_cycle;Max_cycle;Signal;HPM_P1;HPM_P2
2023/05/16 00:01:01;;;;;;;27.13;25.40;;;12.60;99.90;;;;;;4931943;29;20512;-81
2023/05/16 00:03:29;;;;;;;26.50;24.97;;;12.60;99.90;;;;;;4931376;29;20734;-81
2023/05/16 00:05:56;;;;;;;27.60;25.33;;;12.60;99.90;;;;;;4931671;29;20465;-81
2023/05/16 00:08:23;;;;;;;26.20;24.57;;;12.60;99.90;;;;;;4931689;29;20497;-81
2023/05/16 00:10:51;;;;;;;28.63;26.57;;;12.60;99.90;;;;;;4932015;29;20453;-82
2023/05/16 00:13:21;;;;;;;28.03;26.13;;;12.50;99.90;;;;;;4932602;29;20453;-82
2023/05/16 00:15:47;;;;;;;28.03;26.03;;;12.60;99.90;;;;;;4935211;29;20457;-78
2023/05/16 00:18:15;;;;;;;27.90;26.10;;;12.50;99.90;;;;;;4936676;29;20544;-78
2023/05/16 00:20:42;;;;;;;28.50;26.67;;;12.60;99.90;;;;;;4935115;29;20905;-79
2023/05/16 00:23:08;;;;;;;27.77;25.80;;;12.50;99.90;;;;;;4940632;29;20461;-81
2023/05/16 00:25:36;;;;;;;27.47;25.77;;;12.50;99.90;;;;;;4940398;29;20453;-79
2023/05/16 00:28:04;;;;;;;29.57;27.57;;;12.40;99.90;;;;;;4934553;29;20496;-80
2023/05/16 00:30:31;;;;;;;27.67;25.77;;;12.30;99.90;;;;;;4934453;29;20458;-79
2023/05/16 00:32:58;;;;;;;27.60;25.50;;;12.30;99.90;;;;;;4935490;29;20729;-79
2023/05/16 00:35:24;;;;;;;28.43;26.13;;;12.40;99.90;;;;;;4935287;29;20988;-81
2023/05/16 00:37:51;;;;;;;28.53;26.53;;;12.30;99.90;;;;;;4935685;29;20449;-80
2023/05/16 00:40:18;;;;;;;27.83;26.03;;;12.30;99.90;;;;;;4935248;29;20456;-81
2023/05/16 00:42:45;;;;;;;27.40;25.53;;;12.30;99.90;;;;;;4935558;29;20454;-83
2023/05/16 00:45:13;;;;;;;27.50;25.60;;;12.40;99.90;;;;;;4934969;29;20802;-82
2023/05/16 00:47:39;;;;;;;27.20;25.50;;;12.30;99.90;;;;;;4935028;29;20543;-83
2023/05/16 00:50:07;;;;;;;28.80;26.33;;;12.30;99.90;;;;;;4935360;29;20461;-84
2023/05/16 00:52:34;;;;;;;27.07;24.80;;;12.40;99.90;;;;;;4935714;29;20457;-82
2023/05/16 00:55:02;;;;;;;27.33;25.30;;;12.40;99.90;;;;;;4935728;29;20453;-80
2023/05/16 00:57:29;;;;;;;29.37;27.03;;;12.40;99.90;;;;;;4935054;29;20970;-82
2023/05/16 00:59:56;;;;;;;27.53;25.67;;;12.40;99.90;;;;;;4934290;29;20480;-80
2023/05/16 01:02:27;;;;;;;26.60;24.90;;;12.30;99.90;;;;;;4933249;29;20556;-78
2023/05/16 01:04:55;;;;;;;29.90;27.73;;;12.40;99.90;;;;;;4933988;29;20462;-78
2023/05/16 01:07:22;;;;;;;28.07;26.07;;;12.40;99.90;;;;;;4933989;29;20504;-78
2023/05/16 01:09:49;;;;;;;29.73;27.30;;;12.50;99.90;;;;;;4933914;29;20460;-79
2023/05/16 01:12:21;;;;;;;28.40;26.33;;;12.50;99.90;;;;;;4933600;29;20450;-79
2023/05/16 01:15:07;;;;;;;28.50;26.30;;;12.40;99.90;;;;;;4933928;29;20446;-79
2023/05/16 01:17:45;;;;;;;28.00;26.20;;;12.30;99.90;;;;;;4936223;29;20456;-78
2023/05/16 01:20:19;;;;;;;27.33;25.37;;;12.30;99.90;;;;;;4940467;29;20464;-79
2023/05/16 01:22:59;;;;;;;31.57;28.87;;;12.30;99.90;;;;;;4937904;29;20457;-79
2023/05/16 01:25:39;;;;;;;30.10;27.57;;;12.30;99.90;;;;;;4938725;29;20465;-82
2023/05/16 01:28:08;;;;;;;32.80;30.40;;;12.30;99.90;;;;;;4934878;29;20515;-80
2023/05/16 01:30:40;;;;;;;30.50;28.30;;;12.60;99.90;;;;;;4934283;29;20856;-80
2023/05/16 01:33:07;;;;;;;31.50;29.20;;;12.20;99.90;;;;;;4933760;29;20871;-80
2023/05/16 01:35:36;;;;;;;31.03;28.40;;;12.10;99.90;;;;;;4935033;29;20519;-81
2023/05/16 01:38:10;;;;;;;30.30;27.67;;;12.10;99.90;;;;;;4937016;29;20454;-80
2023/05/16 01:40:45;;;;;;;30.50;28.50;;;12.20;99.90;;;;;;4933507;29;20508;-81
2023/05/16 01:43:20;;;;;;;29.23;27.30;;;12.10;99.90;;;;;;4933963;29;20955;-80
2023/05/16 01:45:53;;;;;;;30.73;28.67;;;12.20;99.90;;;;;;4934979;29;20476;-80
2023/05/16 01:48:24;;;;;;;31.80;29.40;;;12.20;99.90;;;;;;4934495;29;20489;-81
2023/05/16 01:50:55;;;;;;;33.23;30.90;;;12.20;99.90;;;;;;4934168;29;20454;-81
2023/05/16 01:53:27;;;;;;;34.93;32.43;;;12.10;99.90;;;;;;4933569;29;20517;-82
2023/05/16 01:55:56;;;;;;;38.93;34.90;;;11.90;99.90;;;;;;4933661;29;20469;-82
2023/05/16 01:58:27;;;;;;;37.93;34.87;;;12.00;99.90;;;;;;4933508;29;20796;-82
2023/05/16 02:00:54;;;;;;;37.10;33.70;;;12.10;99.90;;;;;;4935967;29;20453;-79
2023/05/16 02:03:21;;;;;;;41.53;38.03;;;12.10;99.90;;;;;;4935851;29;20936;-82
2023/05/16 02:05:48;;;;;;;37.47;34.30;;;12.20;99.90;;;;;;4934639;29;20825;-83
2023/05/16 02:08:15;;;;;;;41.23;37.40;;;12.30;99.90;;;;;;4934273;29;20867;-81
2023/05/16 02:10:42;;;;;;;43.73;39.37;;;12.30;99.90;;;;;;4933705;29;20520;-82
2023/05/16 02:13:08;;;;;;;42.40;38.60;;;12.40;99.90;;;;;;4933347;29;20543;-81
2023/05/16 02:15:36;;;;;;;43.77;39.33;;;12.50;99.90;;;;;;4933724;29;20936;-82
2023/05/16 02:18:03;;;;;;;44.60;40.43;;;12.60;99.90;;;;;;4933430;29;20690;-80
2023/05/16 02:20:30;;;;;;;39.83;36.40;;;12.70;99.90;;;;;;4932299;29;20820;-81
2023/05/16 02:22:57;;;;;;;39.40;35.70;;;12.80;99.90;;;;;;4932551;29;20466;-81
2023/05/16 02:25:25;;;;;;;43.60;39.73;;;12.90;99.90;;;;;;4932746;29;20497;-81
2023/05/16 02:27:51;;;;;;;44.10;40.20;;;12.80;99.90;;;;;;4932744;29;20481;-81
2023/05/16 02:30:18;;;;;;;44.93;40.77;;;12.90;99.90;;;;;;4932602;29;20457;-81
2023/05/16 02:32:47;;;;;;;45.27;40.67;;;12.90;99.90;;;;;;4932669;29;20461;-81
2023/05/16 02:35:14;;;;;;;45.13;40.87;;;13.00;99.90;;;;;;4932269;29;20524;-81
2023/05/16 02:37:41;;;;;;;44.40;40.30;;;13.10;99.90;;;;;;4931639;29;20453;-80
2023/05/16 02:40:09;;;;;;;44.77;40.73;;;13.10;99.90;;;;;;4932300;29;20926;-79
2023/05/16 02:42:36;;;;;;;45.60;41.17;;;13.10;99.90;;;;;;4932121;29;20629;-79
2023/05/16 02:45:03;;;;;;;45.37;40.83;;;13.10;99.90;;;;;;4931835;29;20460;-78
2023/05/16 02:47:30;;;;;;;45.37;40.90;;;13.10;99.90;;;;;;4931328;29;20560;-78
2023/05/16 02:49:58;;;;;;;47.37;43.17;;;13.10;99.90;;;;;;4931877;29;20802;-79
2023/05/16 02:52:25;;;;;;;48.23;43.40;;;13.20;99.90;;;;;;4931656;29;20456;-80
2023/05/16 02:54:51;;;;;;;45.57;41.17;;;13.10;99.90;;;;;;4931843;29;20460;-80
2023/05/16 02:57:18;;;;;;;47.00;42.53;;;13.20;99.90;;;;;;4931884;29;20460;-80
2023/05/16 02:59:45;;;;;;;45.97;41.60;;;13.10;99.90;;;;;;4931660;29;20454;-80
2023/05/16 03:02:11;;;;;;;46.63;42.03;;;13.10;99.90;;;;;;4932089;29;20471;-81
2023/05/16 03:04:38;;;;;;;43.83;39.90;;;13.20;99.90;;;;;;4932060;29;20457;-81
2023/05/16 03:07:06;;;;;;;47.60;42.63;;;13.20;99.90;;;;;;4931852;29;20484;-82
2023/05/16 03:09:33;;;;;;;46.00;41.40;;;13.10;99.90;;;;;;4932080;29;20497;-81
2023/05/16 03:12:00;;;;;;;47.53;42.67;;;13.00;99.90;;;;;;4931657;29;20457;-82
2023/05/16 03:14:27;;;;;;;52.17;46.77;;;13.00;99.90;;;;;;4933697;29;20866;-81
2023/05/16 03:16:53;;;;;;;47.33;41.80;;;12.90;99.90;;;;;;4932482;29;20544;-82
2023/05/16 03:19:20;;;;;;;49.83;44.70;;;12.90;99.90;;;;;;4937105;29;20520;-80
2023/05/16 03:21:47;;;;;;;48.37;43.47;;;12.90;99.90;;;;;;4937367;29;20449;-81
2023/05/16 03:24:15;;;;;;;49.60;44.50;;;12.80;99.90;;;;;;4932420;29;20460;-82
2023/05/16 03:26:41;;;;;;;51.03;45.50;;;12.80;99.90;;;;;;4932347;29;20492;-82
2023/05/16 03:29:08;;;;;;;50.87;45.50;;;12.60;99.90;;;;;;4932867;29;20592;-81
2023/05/16 03:31:35;;;;;;;47.83;42.90;;;12.60;99.90;;;;;;4933468;29;20836;-81
2023/05/16 03:34:02;;;;;;;51.47;46.03;;;12.60;99.90;;;;;;4936118;29;20568;-82
2023/05/16 03:36:29;;;;;;;50.97;45.77;;;12.60;99.90;;;;;;4931809;29;20493;-83
2023/05/16 03:38:56;;;;;;;50.40;43.90;;;12.60;99.90;;;;;;4932127;29;20453;-83
2023/05/16 03:41:24;;;;;;;49.37;44.20;;;12.50;99.90;;;;;;4932183;29;20470;-82
2023/05/16 03:43:51;;;;;;;52.30;46.67;;;12.50;99.90;;;;;;4932075;29;20556;-82
2023/05/16 03:46:18;;;;;;;51.67;45.43;;;12.60;99.90;;;;;;4931997;29;20465;-83
2023/05/16 03:48:45;;;;;;;50.53;45.23;;;12.50;99.90;;;;;;4934649;29;20496;-83
2023/05/16 03:51:11;;;;;;;51.17;45.70;;;12.50;99.90;;;;;;4935585;29;20464;-83
2023/05/16 03:53:38;;;;;;;54.57;47.13;;;12.50;99.90;;;;;;4935835;29;20461;-82
2023/05/16 03:56:05;;;;;;;52.23;46.73;;;12.60;99.90;;;;;;4935653;29;20863;-82
2023/05/16 03:58:33;;;;;;;49.50;44.30;;;12.60;99.90;;;;;;4935547;29;20484;-82
2023/05/16 04:01:00;;;;;;;53.60;47.37;;;12.50;99.90;;;;;;4935047;29;20480;-82
2023/05/16 04:03:29;;;;;;;52.03;46.43;;;12.50;99.90;;;;;;4935542;29;20464;-82
2023/05/16 04:05:56;;;;;;;54.00;44.93;;;12.60;99.90;;;;;;4935539;29;20468;-83
2023/05/16 04:08:22;;;;;;;56.60;48.90;;;12.50;99.90;;;;;;4935461;29;20849;-82
2023/05/16 04:10:49;;;;;;;52.10;46.63;;;12.70;99.90;;;;;;4935996;29;20465;-81
2023/05/16 04:13:16;;;;;;;56.40;48.43;;;12.70;99.90;;;;;;4935751;29;20983;-82
2023/05/16 04:15:44;;;;;;;51.60;45.93;;;12.70;99.90;;;;;;4935992;29;20464;-81
2023/05/16 04:18:10;;;;;;;53.13;46.70;;;12.70;99.90;;;;;;4936407;29;20750;-80
2023/05/16 04:20:37;;;;;;;52.57;47.07;;;12.90;99.90;;;;;;4936991;29;20452;-81
2023/05/16 04:23:04;;;;;;;52.50;45.53;;;12.90;99.90;;;;;;4936384;29;20453;-81
2023/05/16 04:25:31;;;;;;;56.47;48.00;;;13.00;99.90;;;;;;4935939;29;20468;-81
2023/05/16 04:27:58;;;;;;;52.83;47.23;;;13.10;99.90;;;;;;4937716;29;20604;-80
2023/05/16 04:30:25;;;;;;;51.63;46.07;;;13.30;99.90;;;;;;4937411;29;20461;-80
2023/05/16 04:32:53;;;;;;;55.07;49.20;;;13.40;99.90;;;;;;4939193;29;20571;-79
2023/05/16 04:35:20;;;;;;;55.30;49.30;;;13.40;99.90;;;;;;4938299;29;20501;-82
2023/05/16 04:37:47;;;;;;;52.50;47.10;;;13.50;99.90;;;;;;4936708;29;20465;-80
2023/05/16 04:40:14;;;;;;;53.97;48.17;;;13.60;99.90;;;;;;4939599;29;20446;-81
2023/05/16 04:42:41;;;;;;;53.23;47.50;;;13.70;99.90;;;;;;4936878;29;20685;-79
2023/05/16 04:45:10;;;;;;;52.80;46.77;;;13.70;99.90;;;;;;4937586;29;20461;-79
2023/05/16 04:47:37;;;;;;;53.27;46.77;;;13.80;99.90;;;;;;4936990;29;20932;-82
2023/05/16 04:50:08;;;;;;;54.80;48.57;;;13.80;99.90;;;;;;4937383;29;20524;-80
2023/05/16 04:52:35;;;;;;;50.80;45.30;;;13.80;99.90;;;;;;4938022;29;20486;-80
2023/05/16 04:55:02;;;;;;;49.80;44.70;;;13.90;99.90;;;;;;4935435;29;20464;-81
2023/05/16 04:57:29;;;;;;;50.53;45.23;;;14.10;99.90;;;;;;4935760;29;20465;-83
2023/05/16 04:59:55;;;;;;;50.73;45.10;;;14.00;99.90;;;;;;4935865;29;20538;-80
2023/05/16 05:02:22;;;;;;;50.57;45.07;;;14.00;99.90;;;;;;4936449;29;20460;-80
2023/05/16 05:04:49;;;;;;;48.73;43.53;;;14.00;99.90;;;;;;4937263;29;20491;-80
2023/05/16 05:07:17;;;;;;;51.73;46.23;;;14.20;99.90;;;;;;4931193;29;20476;-82
2023/05/16 05:09:45;;;;;;;48.10;42.60;;;14.30;99.90;;;;;;4937577;29;20548;-82
2023/05/16 05:12:12;;;;;;;48.30;43.40;;;14.40;99.90;;;;;;4938380;29;20489;-78
2023/05/16 05:14:39;;;;;;;50.07;44.67;;;14.50;99.90;;;;;;4937423;29;20509;-80
2023/05/16 05:17:05;;;;;;;52.33;46.70;;;14.50;99.90;;;;;;4937476;29;20505;-80
2023/05/16 05:19:32;;;;;;;52.53;44.57;;;14.60;99.90;;;;;;4937517;29;20496;-79
2023/05/16 05:21:59;;;;;;;44.97;40.37;;;14.60;99.90;;;;;;4939082;29;20457;-79
2023/05/16 05:24:27;;;;;;;46.67;41.67;;;14.50;99.90;;;;;;4936962;29;20553;-81
2023/05/16 05:26:54;;;;;;;46.57;41.67;;;14.30;99.90;;;;;;4934946;29;20461;-80
2023/05/16 05:29:21;;;;;;;49.33;44.10;;;14.40;99.90;;;;;;4935173;29;20692;-78
2023/05/16 05:31:48;;;;;;;49.30;44.13;;;14.40;99.90;;;;;;4934794;29;20560;-80
2023/05/16 05:34:14;;;;;;;47.33;42.10;;;14.40;99.90;;;;;;4933788;29;20469;-79
2023/05/16 05:36:41;;;;;;;48.97;43.40;;;14.40;99.90;;;;;;4934164;29;20490;-80
2023/05/16 05:39:08;;;;;;;46.10;41.50;;;14.30;99.90;;;;;;4934081;29;20469;-79
2023/05/16 05:41:37;;;;;;;49.60;44.40;;;14.20;99.90;;;;;;4930840;29;20454;-80
2023/05/16 05:44:03;;;;;;;50.57;42.73;;;14.10;99.90;;;;;;4934618;29;20453;-81
2023/05/16 05:46:30;;;;;;;48.33;43.27;;;14.20;99.90;;;;;;4934268;29;20458;-79
2023/05/16 05:48:57;;;;;;;64.20;47.93;;;14.20;99.90;;;;;;4935762;29;20497;-80
2023/05/16 05:51:24;;;;;;;49.93;44.57;;;14.30;99.90;;;;;;4935332;29;20531;-81
2023/05/16 05:53:51;;;;;;;47.47;42.30;;;14.30;99.90;;;;;;4934720;29;20453;-79
2023/05/16 05:56:18;;;;;;;47.27;42.37;;;14.20;99.90;;;;;;4930991;29;20836;-81
2023/05/16 05:58:46;;;;;;;47.03;42.17;;;14.20;99.90;;;;;;4934279;29;20449;-80
2023/05/16 06:01:13;;;;;;;44.43;39.73;;;14.10;99.90;;;;;;4937363;29;21004;-81
2023/05/16 06:03:39;;;;;;;45.60;41.00;;;14.20;99.90;;;;;;4941059;29;20464;-80
2023/05/16 06:06:07;;;;;;;43.87;38.83;;;14.00;99.90;;;;;;4954056;29;20446;-81
2023/05/16 06:08:33;;;;;;;46.67;41.87;;;14.30;99.90;;;;;;4950721;29;20449;-79
2023/05/16 06:11:00;;;;;;;46.97;41.93;;;14.20;99.90;;;;;;4947176;29;20454;-80
2023/05/16 06:13:27;;;;;;;47.73;42.73;;;14.20;99.90;;;;;;4953850;29;20462;-82
2023/05/16 06:15:55;;;;;;;49.63;44.30;;;14.20;99.90;;;;;;4938735;29;20449;-79
2023/05/16 06:18:22;;;;;;;46.07;41.50;;;14.20;99.90;;;;;;4933314;29;20453;-80
2023/05/16 06:20:49;;;;;;;44.37;39.77;;;14.30;99.90;;;;;;4933707;29;20456;-81
2023/05/16 06:23:16;;;;;;;46.60;41.60;;;14.40;99.90;;;;;;4933776;29;20491;-80
2023/05/16 06:25:42;;;;;;;45.60;40.90;;;14.50;99.90;;;;;;4932855;29;20903;-78
2023/05/16 06:28:09;;;;;;;46.13;41.43;;;14.70;99.90;;;;;;4932954;29;20468;-79
2023/05/16 06:30:36;;;;;;;45.30;40.83;;;14.80;99.90;;;;;;4932924;29;20497;-79
2023/05/16 06:33:04;;;;;;;43.67;39.10;;;15.10;99.90;;;;;;4933581;29;20959;-81
2023/05/16 06:35:31;;;;;;;43.53;39.20;;;15.10;99.90;;;;;;4933768;29;20493;-80
2023/05/16 06:37:57;;;;;;;43.27;39.00;;;14.90;99.90;;;;;;4936341;29;20865;-81
2023/05/16 06:40:24;;;;;;;42.43;38.43;;;14.80;99.90;;;;;;4932522;29;20449;-78
2023/05/16 06:42:51;;;;;;;40.83;36.93;;;15.00;99.90;;;;;;4932718;29;20457;-80
2023/05/16 06:45:18;;;;;;;40.90;36.67;;;15.00;99.90;;;;;;4932896;29;20477;-79
2023/05/16 06:47:44;;;;;;;40.87;36.80;;;14.80;99.90;;;;;;4932641;29;20454;-79
2023/05/16 06:50:12;;;;;;;39.40;35.80;;;15.00;99.90;;;;;;4932631;29;20496;-81
2023/05/16 06:52:40;;;;;;;40.17;36.30;;;14.90;99.90;;;;;;4932698;29;20508;-81
2023/05/16 06:55:08;;;;;;;39.80;35.93;;;14.80;99.90;;;;;;4933068;29;20808;-78
2023/05/16 06:57:34;;;;;;;37.87;34.17;;;14.90;99.90;;;;;;4932488;29;20457;-80
2023/05/16 07:00:01;;;;;;;38.20;34.30;;;14.90;99.90;;;;;;4932496;29;20452;-82
2023/05/16 07:02:28;;;;;;;34.67;31.57;;;14.90;99.90;;;;;;4932332;29;20453;-81
2023/05/16 07:04:55;;;;;;;34.93;31.83;;;15.00;99.90;;;;;;4932413;29;20460;-80
2023/05/16 07:07:23;;;;;;;35.07;31.40;;;15.10;99.90;;;;;;4932769;29;20461;-81
2023/05/16 07:09:49;;;;;;;35.80;32.77;;;15.20;99.90;;;;;;4932948;29;20504;-80
2023/05/16 07:12:17;;;;;;;33.27;30.10;;;15.50;99.90;;;;;;4932895;29;20460;-80
2023/05/16 07:14:44;;;;;;;33.47;30.43;;;15.60;99.90;;;;;;4933466;29;20461;-80
2023/05/16 07:17:11;;;;;;;33.40;30.33;;;15.60;99.90;;;;;;4935820;29;21120;-83
2023/05/16 07:19:37;;;;;;;35.13;31.83;;;15.60;99.90;;;;;;4941699;29;20449;-80
2023/05/16 07:22:04;;;;;;;35.27;32.07;;;15.80;99.90;;;;;;4947032;29;20457;-81
2023/05/16 07:24:32;;;;;;;33.73;30.50;;;15.60;99.90;;;;;;4950513;29;20525;-82
2023/05/16 07:26:59;;;;;;;35.67;31.90;;;15.50;99.90;;;;;;4946680;29;20457;-81
2023/05/16 07:29:26;;;;;;;30.60;27.90;;;15.50;99.90;;;;;;4944718;29;20493;-81
2023/05/16 07:31:53;;;;;;;34.23;30.93;;;15.50;99.90;;;;;;4943582;29;20485;-81
2023/05/16 07:34:20;;;;;;;33.03;30.43;;;15.20;99.90;;;;;;4948942;29;20477;-81
2023/05/16 07:36:46;;;;;;;31.67;28.70;;;15.20;99.90;;;;;;4944825;29;20507;-82
2023/05/16 07:39:13;;;;;;;31.40;28.70;;;15.00;99.90;;;;;;4949682;29;20468;-81
2023/05/16 07:41:41;;;;;;;31.30;28.60;;;15.10;99.90;;;;;;4946185;29;20461;-81
2023/05/16 07:44:08;;;;;;;32.80;29.67;;;15.00;99.90;;;;;;4951212;29;20452;-80
2023/05/16 07:46:35;;;;;;;34.20;31.00;;;15.10;99.90;;;;;;4951636;29;20461;-82
2023/05/16 07:49:01;;;;;;;31.93;28.50;;;15.20;99.90;;;;;;4948730;29;20453;-81
2023/05/16 07:51:28;;;;;;;29.40;27.00;;;15.30;99.90;;;;;;4949683;29;20459;-82
2023/05/16 07:53:55;;;;;;;28.83;26.57;;;15.30;99.90;;;;;;4948620;29;20524;-81
2023/05/16 07:56:22;;;;;;;27.47;25.37;;;15.20;99.90;;;;;;4946851;29;20967;-81
2023/05/16 07:58:50;;;;;;;28.37;25.93;;;15.40;99.90;;;;;;4946778;29;20454;-81
2023/05/16 08:01:17;;;;;;;26.77;24.87;;;15.40;99.90;;;;;;4939292;29;20453;-82
2023/05/16 08:03:44;;;;;;;25.13;23.20;;;15.60;99.90;;;;;;4941232;29;20454;-81
2023/05/16 08:06:10;;;;;;;27.00;24.70;;;15.70;99.90;;;;;;4937800;29;20456;-81
2023/05/16 08:08:37;;;;;;;25.13;23.13;;;15.70;99.90;;;;;;4940474;29;20467;-82
2023/05/16 08:11:05;;;;;;;24.57;22.87;;;15.60;99.90;;;;;;4941443;29;20863;-81
2023/05/16 08:13:31;;;;;;;25.67;23.60;;;15.40;99.90;;;;;;4946789;29;20456;-81
2023/05/16 08:15:59;;;;;;;24.87;22.97;;;15.40;99.90;;;;;;4949849;29;20450;-82
2023/05/16 08:18:26;;;;;;;23.97;22.23;;;15.40;99.90;;;;;;4947576;29;20464;-81
2023/05/16 08:20:53;;;;;;;22.33;20.70;;;15.30;99.90;;;;;;4950062;29;20456;-80
2023/05/16 08:23:20;;;;;;;24.70;22.90;;;15.40;99.90;;;;;;4950436;29;20465;-81
2023/05/16 08:25:47;;;;;;;21.33;20.03;;;15.40;99.90;;;;;;4947862;29;20501;-81
2023/05/16 08:28:14;;;;;;;21.77;20.20;;;15.20;99.90;;;;;;4949977;29;20528;-83
2023/05/16 08:30:40;;;;;;;21.40;19.97;;;15.20;99.90;;;;;;4944973;29;20889;-80
2023/05/16 08:33:09;;;;;;;20.17;18.87;;;15.20;99.90;;;;;;4947371;29;20453;-80
2023/05/16 08:35:35;;;;;;;20.83;19.43;;;15.00;99.90;;;;;;4943809;29;20805;-81
2023/05/16 08:38:02;;;;;;;22.77;21.10;;;15.00;99.90;;;;;;4941343;29;20457;-80
2023/05/16 08:40:30;;;;;;;23.40;21.90;;;15.20;99.90;;;;;;4951353;29;20508;-81
2023/05/16 08:42:56;;;;;;;22.80;21.20;;;15.20;99.90;;;;;;4946715;29;20449;-80
2023/05/16 08:45:24;;;;;;;21.70;20.10;;;15.40;99.90;;;;;;4949624;29;20932;-81
2023/05/16 08:47:54;;;;;;;25.10;23.40;;;15.30;99.90;;;;;;4936038;29;20453;-79
2023/05/16 08:50:22;;;;;;;24.77;22.67;;;15.20;99.90;;;;;;4934850;29;20492;-79
2023/05/16 08:52:52;;;;;;;24.17;22.47;;;15.20;99.90;;;;;;4934567;29;20964;-79
2023/05/16 08:55:20;;;;;;;24.40;22.50;;;15.20;99.90;;;;;;4934848;29;20461;-79
2023/05/16 08:57:49;;;;;;;24.90;22.80;;;15.00;99.90;;;;;;4934981;29;20481;-80
2023/05/16 09:00:18;;;;;;;24.23;22.33;;;15.00;99.90;;;;;;4934768;29;20468;-80
2023/05/16 13:57:22;;;;;;;14.60;13.20;;;15.30;99.90;;;;;;5541594;23;20560;-80
2023/05/16 13:59:48;;;;;;;13.03;12.43;;;14.90;99.90;;;;;;4970278;28;20485;-81
2023/05/16 14:02:15;;;;;;;13.67;12.87;;;15.00;99.90;;;;;;4972533;28;20459;-81
2023/05/16 14:04:42;;;;;;;13.43;12.73;;;14.90;99.90;;;;;;4973781;28;20773;-80
2023/05/16 14:07:08;;;;;;;13.50;12.90;;;14.80;99.90;;;;;;4973566;28;20463;-80
2023/05/16 14:09:38;;;;;;;13.70;13.10;;;14.60;99.90;;;;;;4976198;28;20463;-80
2023/05/16 14:12:06;;;;;;;14.17;13.40;;;14.30;99.90;;;;;;4991927;28;20478;-82
2023/05/16 14:14:34;;;;;;;14.00;13.40;;;14.30;99.90;;;;;;4987770;28;20513;-82
2023/05/16 14:17:00;;;;;;;14.00;13.40;;;14.20;99.90;;;;;;4992623;28;20435;-81
2023/05/16 14:19:27;;;;;;;14.30;13.50;;;14.20;99.90;;;;;;4991629;28;20449;-81
2023/05/16 14:21:54;;;;;;;14.57;13.70;;;14.20;99.90;;;;;;4991259;28;20462;-82
2023/05/16 14:24:21;;;;;;;13.33;12.73;;;14.40;99.90;;;;;;4991009;28;20546;-81
2023/05/16 14:26:47;;;;;;;15.03;14.13;;;14.50;99.90;;;;;;4992038;28;20862;-82
2023/05/16 14:29:14;;;;;;;13.87;13.27;;;14.60;99.90;;;;;;4991923;28;20451;-80
2023/05/16 14:31:42;;;;;;;14.37;13.70;;;14.60;99.90;;;;;;4991342;28;20485;-81
2023/05/16 14:34:09;;;;;;;13.57;12.87;;;14.60;99.90;;;;;;4991591;28;20538;-82
2023/05/16 14:36:36;;;;;;;14.60;13.50;;;14.70;99.90;;;;;;4991520;28;20443;-82
2023/05/16 14:39:02;;;;;;;14.30;13.60;;;14.70;99.90;;;;;;4992013;28;20439;-83
2023/05/16 14:41:29;;;;;;;14.30;13.70;;;14.80;99.90;;;;;;4991822;28;20443;-82
2023/05/16 14:43:56;;;;;;;13.87;13.27;;;15.00;99.90;;;;;;4991558;28;20439;-82
2023/05/16 14:46:22;;;;;;;14.43;13.83;;;15.10;99.90;;;;;;4991675;28;20704;-82
2023/05/16 14:48:51;;;;;;;14.00;13.30;;;15.00;99.90;;;;;;4991477;28;20450;-81
2023/05/16 14:51:18;;;;;;;15.30;14.30;;;15.00;99.90;;;;;;4991510;28;20541;-82
2023/05/16 14:53:44;;;;;;;13.70;13.00;;;15.00;99.90;;;;;;4991941;28;20442;-83
2023/05/16 14:56:11;;;;;;;14.30;13.70;;;15.20;99.90;;;;;;4980665;28;20985;-82
2023/05/16 14:58:38;;;;;;;13.70;13.00;;;15.50;99.90;;;;;;4972192;28;20472;-83
2023/05/16 15:01:04;;;;;;;13.80;13.00;;;15.50;99.90;;;;;;4972169;28;20435;-82
2023/05/16 15:03:32;;;;;;;13.73;13.03;;;15.60;99.90;;;;;;4972208;28;20463;-82
2023/05/16 15:06:00;;;;;;;12.67;12.17;;;15.60;99.90;;;;;;4971571;28;20977;-77
2023/05/16 15:08:27;;;;;;;13.70;13.00;;;15.30;99.90;;;;;;4971953;28;20468;-82
2023/05/16 15:10:53;;;;;;;14.37;13.37;;;15.30;99.90;;;;;;4968995;28;21245;-82
2023/05/16 15:13:20;;;;;;;13.47;12.87;;;15.40;99.90;;;;;;4971296;28;20448;-81
2023/05/16 15:15:46;;;;;;;13.17;12.63;;;15.30;99.90;;;;;;4971896;28;20466;-80
2023/05/16 15:18:13;;;;;;;13.03;12.40;;;15.20;99.90;;;;;;4971344;28;20455;-80
2023/05/16 15:20:40;;;;;;;11.83;11.13;;;15.20;99.90;;;;;;4971551;28;20459;-81
2023/05/16 15:23:08;;;;;;;13.03;12.33;;;15.10;99.90;;;;;;4971256;28;20459;-81
2023/05/16 15:25:35;;;;;;;13.20;12.50;;;15.00;99.90;;;;;;4971439;28;20494;-80
2023/05/16 15:28:01;;;;;;;12.70;12.07;;;15.00;99.90;;;;;;4971484;28;20462;-80
2023/05/16 15:30:28;;;;;;;12.60;12.00;;;14.90;99.90;;;;;;4971691;28;20488;-80
2023/05/16 15:32:55;;;;;;;12.23;11.77;;;14.80;99.90;;;;;;4971090;28;21232;-82
2023/05/16 15:35:21;;;;;;;12.43;11.87;;;14.90;99.90;;;;;;4971538;28;20806;-80
2023/05/16 15:37:48;;;;;;;12.70;11.90;;;15.10;99.90;;;;;;4971438;28;20858;-82
2023/05/16 15:40:17;;;;;;;11.80;11.40;;;15.20;99.90;;;;;;4971871;28;20451;-83
2023/05/16 15:42:43;;;;;;;11.77;11.17;;;15.20;99.90;;;;;;4971405;28;20451;-81
2023/05/16 15:45:11;;;;;;;11.50;10.90;;;15.20;99.90;;;;;;4975006;28;20868;-81
2023/05/16 15:47:38;;;;;;;12.43;11.70;;;15.40;99.90;;;;;;4975375;28;20736;-82
2023/05/16 15:50:05;;;;;;;12.23;11.73;;;15.40;99.90;;;;;;4975121;28;20452;-82
2023/05/16 15:52:32;;;;;;;11.50;10.80;;;15.70;99.90;;;;;;4974939;28;20491;-81
2023/05/16 15:54:58;;;;;;;12.20;11.70;;;15.80;99.90;;;;;;4974566;28;20460;-79
2023/05/16 15:57:26;;;;;;;12.60;12.00;;;15.80;99.90;;;;;;4973907;28;20483;-80
2023/05/16 15:59:53;;;;;;;12.00;11.40;;;15.80;99.90;;;;;;4974069;28;20574;-81
2023/05/16 16:02:20;;;;;;;11.80;11.00;;;15.70;99.90;;;;;;4974638;28;20443;-81
2023/05/16 16:04:47;;;;;;;11.10;10.60;;;15.50;99.90;;;;;;4974759;28;20456;-81
2023/05/16 16:07:14;;;;;;;11.67;11.17;;;15.40;99.90;;;;;;4974742;28;20473;-81
2023/05/16 16:09:41;;;;;;;11.07;10.67;;;15.20;99.90;;;;;;4974804;28;20467;-81
2023/05/16 16:12:08;;;;;;;10.90;10.40;;;15.10;99.90;;;;;;4974355;28;20475;-82
2023/05/16 16:14:36;;;;;;;11.50;11.00;;;15.00;99.90;;;;;;4974043;28;20478;-83
2023/05/16 16:17:03;;;;;;;11.10;10.50;;;15.10;99.90;;;;;;4973858;28;20634;-81
2023/05/16 16:19:30;;;;;;;12.23;11.73;;;15.10;99.90;;;;;;4973936;28;20968;-82
2023/05/16 16:21:57;;;;;;;11.33;10.80;;;15.10;99.90;;;;;;4973584;28;20563;-81
2023/05/16 16:24:23;;;;;;;13.70;12.90;;;15.10;99.90;;;;;;4973303;28;20459;-80
2023/05/16 16:26:50;;;;;;;12.67;11.83;;;14.80;99.90;;;;;;4973457;28;20850;-80
2023/05/16 16:29:17;;;;;;;12.30;11.77;;;14.80;99.90;;;;;;4973526;28;20462;-83
2023/05/16 16:31:45;;;;;;;12.07;11.50;;;14.80;99.90;;;;;;4973238;28;20840;-81
2023/05/16 16:34:11;;;;;;;12.70;11.93;;;14.90;99.90;;;;;;4973036;28;20459;-79
2023/05/16 16:36:38;;;;;;;12.10;11.50;;;14.90;99.90;;;;;;4973012;28;20455;-79
2023/05/16 16:39:05;;;;;;;10.67;10.27;;;14.80;99.90;;;;;;4972984;28;20468;-79
2023/05/16 16:41:32;;;;;;;11.50;10.90;;;14.80;99.90;;;;;;4973129;28;21049;-79
2023/05/16 16:43:58;;;;;;;12.40;11.60;;;14.90;99.90;;;;;;4956755;28;20460;-80
2023/05/16 16:46:25;;;;;;;12.43;11.70;;;15.00;99.90;;;;;;4953572;28;20643;-81
2023/05/16 16:48:53;;;;;;;11.30;10.80;;;15.10;99.90;;;;;;4953519;29;20448;-80
2023/05/16 16:51:20;;;;;;;11.20;10.70;;;15.10;99.90;;;;;;4953319;29;20495;-79
2023/05/16 16:53:47;;;;;;;12.27;11.13;;;15.00;99.90;;;;;;4953744;28;20522;-79
2023/05/16 16:56:14;;;;;;;12.23;11.53;;;14.90;99.90;;;;;;4952513;28;20840;-79
2023/05/16 16:58:41;;;;;;;11.37;10.60;;;14.90;99.90;;;;;;4953254;29;20566;-79
2023/05/16 17:01:07;;;;;;;12.20;11.00;;;14.90;99.90;;;;;;4953280;28;20448;-80
2023/05/16 17:03:34;;;;;;;11.37;10.37;;;15.00;99.90;;;;;;4953357;28;20818;-79
2023/05/16 17:06:03;;;;;;;12.13;11.13;;;15.00;99.90;;;;;;4953353;28;20507;-79
2023/05/16 17:08:29;;;;;;;12.00;11.27;;;15.20;99.90;;;;;;4953643;28;20457;-80
2023/05/16 17:10:58;;;;;;;11.23;10.57;;;15.10;99.90;;;;;;4953118;28;20496;-81
2023/05/16 17:13:32;;;;;;;11.40;10.47;;;15.00;99.90;;;;;;4953244;28;20879;-79
2023/05/16 17:15:59;;;;;;;11.63;11.17;;;14.90;99.90;;;;;;4953445;28;20523;-81
2023/05/16 17:18:26;;;;;;;12.60;11.80;;;14.90;99.90;;;;;;4953061;29;20456;-80
2023/05/16 17:20:53;;;;;;;12.10;11.40;;;15.00;99.90;;;;;;4957480;28;20460;-80
2023/05/16 17:23:21;;;;;;;11.00;10.50;;;15.00;99.90;;;;;;4970711;28;20458;-81